createdAt,value
2022-11-25T00:00:09.642Z,0.3
2022-11-25T00:03:10.186Z,0.1
2022-11-25T00:06:09.555Z,1.9
2022-11-25T00:09:09.762Z,1.8
2022-11-25T00:12:09.626Z,1.7
2022-11-25T00:15:09.524Z,1.6
2022-11-25T00:18:10.315Z,1.5
2022-11-25T00:21:09.550Z,1.4
2022-11-25T00:24:09.593Z,1.3
2022-11-25T00:27:09.569Z,1.3
2022-11-25T00:30:09.620Z,1.3
2022-11-25T00:33:09.509Z,1.2
2022-11-25T00:36:09.581Z,1.2
2022-11-25T00:39:09.552Z,1.2
2022-11-25T00:42:09.489Z,1.2
2022-11-25T00:45:09.628Z,1.2
2022-11-25T00:48:09.527Z,1.2
2022-11-25T00:51:09.542Z,1.2
2022-11-25T00:54:09.570Z,1.4
2022-11-25T00:57:09.521Z,1.4
2022-11-25T01:00:09.646Z,1.3
2022-11-25T01:03:09.568Z,1.2
2022-11-25T01:06:09.481Z,1.1
2022-11-25T01:09:09.512Z,1
2022-11-25T01:12:09.631Z,1
2022-11-25T01:15:09.574Z,0.9
2022-11-25T01:18:09.571Z,0.9
2022-11-25T01:21:09.498Z,0.9
2022-11-25T01:24:10.039Z,1
2022-11-25T01:27:09.491Z,1.1
2022-11-25T01:30:09.622Z,1.1
2022-11-25T01:33:09.484Z,1.1
2022-11-25T01:36:09.508Z,1
2022-11-25T01:39:09.660Z,1
2022-11-25T01:42:09.671Z,1
2022-11-25T01:45:09.531Z,1.1
2022-11-25T01:48:09.560Z,1.1
2022-11-25T01:51:09.568Z,1.1
2022-11-25T01:54:09.569Z,1.1
2022-11-25T01:57:09.633Z,1.1
2022-11-25T02:00:09.693Z,1.2
2022-11-25T02:03:09.517Z,1.2
2022-11-25T02:06:09.573Z,1.2
2022-11-25T02:09:09.598Z,1.1
2022-11-25T02:12:09.518Z,1.2
2022-11-25T02:15:09.530Z,1.1
2022-11-25T02:18:09.551Z,1.1
2022-11-25T02:21:09.517Z,1.1
2022-11-25T02:24:09.560Z,1.4
2022-11-25T02:27:09.587Z,1.5
2022-11-25T02:30:09.558Z,1.4
2022-11-25T02:33:09.564Z,1.6
2022-11-25T02:36:09.524Z,1.7
2022-11-25T02:39:09.635Z,1.6
2022-11-25T02:42:09.529Z,1.4
2022-11-25T02:45:09.582Z,1.7
2022-11-25T02:48:09.567Z,0.1
2022-11-25T02:51:09.556Z,0.4
2022-11-25T02:54:09.648Z,0.4
2022-11-25T02:57:09.542Z,0.4
2022-11-25T03:00:09.584Z,0.4
2022-11-25T03:09:09.558Z,0.3
2022-11-25T03:12:09.656Z,0.3
2022-11-25T03:15:10.077Z,0.4
2022-11-25T03:18:09.534Z,0.6
2022-11-25T03:21:09.551Z,0.8
2022-11-25T03:24:09.535Z,0.8
2022-11-25T03:27:09.607Z,0.5
2022-11-25T03:30:09.559Z,0.3
2022-11-25T03:33:09.594Z,0.1
2022-11-25T03:36:09.576Z,1.9
2022-11-25T03:39:09.500Z,1.8
2022-11-25T03:42:09.520Z,1.7
2022-11-25T03:45:09.615Z,1.6
2022-11-25T03:48:09.666Z,1.6
2022-11-25T03:51:09.572Z,1.6
2022-11-25T03:54:09.521Z,1.5
2022-11-25T03:57:09.564Z,1.5
2022-11-25T04:00:09.613Z,1.5
2022-11-25T04:03:09.549Z,1.5
2022-11-25T04:06:09.554Z,1.4
2022-11-25T04:09:09.569Z,1.4
2022-11-25T04:12:09.577Z,1.3
2022-11-25T04:15:09.499Z,1.2
2022-11-25T04:18:09.546Z,1.2
2022-11-25T04:21:09.547Z,1.2
2022-11-25T04:24:09.559Z,1.2
2022-11-25T04:27:09.521Z,1.3
2022-11-25T04:30:09.547Z,1.3
2022-11-25T04:33:09.619Z,1.3
2022-11-25T04:36:09.507Z,1.3
2022-11-25T04:39:09.579Z,1.4
2022-11-25T04:42:09.686Z,1.5
2022-11-25T04:48:09.563Z,1.6
2022-11-25T04:51:09.678Z,1.6
2022-11-25T04:54:12.179Z,1.6
2022-11-25T04:57:09.527Z,1.5
2022-11-25T05:00:09.672Z,1.4
2022-11-25T05:03:09.670Z,1.5
2022-11-25T05:06:09.624Z,1.4
2022-11-25T05:09:09.532Z,1.5
2022-11-25T05:12:09.678Z,1.6
2022-11-25T05:15:09.614Z,1.6
2022-11-25T05:18:09.573Z,1.7
2022-11-25T05:21:09.623Z,1.6
2022-11-25T05:24:09.536Z,1.7
2022-11-25T05:27:09.486Z,1.6
2022-11-25T05:30:09.556Z,1.6
2022-11-25T05:33:09.548Z,1.8
2022-11-25T05:36:09.550Z,1.8
2022-11-25T05:39:09.544Z,1.8
2022-11-25T05:42:09.588Z,1.8
2022-11-25T05:45:09.627Z,1.8
2022-11-25T05:48:09.485Z,1.9
2022-11-25T05:51:09.516Z,1.8
2022-11-25T05:54:09.527Z,1.7
2022-11-25T05:57:09.524Z,1.7
2022-11-25T06:00:09.562Z,1.7
2022-11-25T06:03:10.413Z,1.7
2022-11-25T06:06:09.568Z,1.6
2022-11-25T06:09:09.520Z,1.6
2022-11-25T06:12:09.563Z,1.6
2022-11-25T06:15:09.555Z,1.6
2022-11-25T06:18:09.546Z,1.6
2022-11-25T06:21:09.521Z,1.6
2022-11-25T06:24:09.549Z,1.7
2022-11-25T06:27:09.548Z,1.7
2022-11-25T06:30:09.623Z,1.7
2022-11-25T06:33:09.478Z,1.7
2022-11-25T06:36:09.536Z,1.7
2022-11-25T06:39:09.565Z,1.7
2022-11-25T06:42:09.618Z,1.7
2022-11-25T06:45:09.581Z,1.7
2022-11-25T06:48:09.559Z,1.7
2022-11-25T06:51:10.239Z,1.8
2022-11-25T06:54:09.507Z,1.8
2022-11-25T06:57:09.684Z,1.9
2022-11-25T07:00:09.819Z,1.9
2022-11-25T07:03:09.864Z,0.1
2022-11-25T07:06:09.569Z,0.1
2022-11-25T07:09:09.645Z,0.1
2022-11-25T07:12:09.592Z,0.1
2022-11-25T07:15:09.607Z,0.1
2022-11-25T07:18:09.554Z,0.2
2022-11-25T07:21:09.624Z,0.2
2022-11-25T07:24:09.538Z,0.1
2022-11-25T07:27:09.599Z,0.1
2022-11-25T07:33:10.427Z,0.2
2022-11-25T07:36:09.599Z,0.3
2022-11-25T07:39:09.813Z,0.4
2022-11-25T07:42:09.660Z,0.5
2022-11-25T07:45:09.644Z,0.6
2022-11-25T07:48:09.590Z,0.9
2022-11-25T07:51:09.647Z,1
2022-11-25T07:54:09.642Z,1.2
2022-11-25T07:57:09.679Z,1.3
2022-11-25T08:00:09.997Z,1.3
2022-11-25T08:03:10.109Z,1.3
2022-11-25T08:06:09.620Z,1.3
2022-11-25T08:09:09.625Z,1.4
2022-11-25T08:12:09.680Z,1.4
2022-11-25T08:15:09.722Z,1.5
2022-11-25T08:18:09.586Z,1.6
2022-11-25T08:21:09.614Z,1.8
2022-11-25T08:24:09.742Z,1.9
2022-11-25T08:27:09.594Z,2.1
2022-11-25T08:30:09.951Z,2.2
2022-11-25T08:33:09.624Z,2.3
2022-11-25T08:36:09.620Z,2.4
2022-11-25T08:39:56.211Z,2.4
2022-11-25T08:42:09.606Z,2.6
2022-11-25T08:45:09.663Z,2.7
2022-11-25T08:48:09.552Z,2.9
2022-11-25T08:51:09.597Z,3.1
2022-11-25T08:54:09.631Z,3.3
2022-11-25T08:57:09.665Z,3.4
2022-11-25T09:00:09.645Z,3.4
2022-11-25T09:03:13.888Z,3.5
2022-11-25T09:06:09.560Z,3.5
2022-11-25T09:09:09.650Z,3.4
2022-11-25T09:12:09.638Z,3.4
2022-11-25T09:15:09.601Z,3.4
2022-11-25T09:18:09.604Z,3.4
2022-11-25T09:21:09.579Z,3.4
2022-11-25T09:24:09.697Z,3.4
2022-11-25T09:27:09.689Z,3.4
2022-11-25T09:30:09.613Z,3.5
2022-11-25T09:33:09.578Z,3.6
2022-11-25T09:36:09.616Z,3.6
2022-11-25T09:39:09.556Z,3.7
2022-11-25T09:42:09.754Z,3.8
2022-11-25T09:45:09.696Z,4
2022-11-25T09:48:09.602Z,4.1
2022-11-25T09:51:09.567Z,4.1
2022-11-25T09:54:09.508Z,4.3
2022-11-25T09:57:09.655Z,4.4
2022-11-25T10:00:09.649Z,4.5
2022-11-25T10:03:10.535Z,4.6
2022-11-25T10:06:09.993Z,4.7
2022-11-25T10:09:09.579Z,4.6
2022-11-25T10:12:09.646Z,4.6
2022-11-25T10:15:09.590Z,4.5
2022-11-25T10:18:09.597Z,4.4
2022-11-25T10:21:09.593Z,4.4
2022-11-25T10:24:09.566Z,4.4
2022-11-25T10:27:09.589Z,4.4
2022-11-25T10:30:09.680Z,4.4
2022-11-25T10:33:11.609Z,4.6
2022-11-25T10:36:09.637Z,4.7
2022-11-25T10:39:09.582Z,4.7
2022-11-25T10:42:09.593Z,4.8
2022-11-25T10:45:09.625Z,4.8
2022-11-25T10:48:09.676Z,4.8
2022-11-25T10:51:09.571Z,4.9
2022-11-25T10:54:09.703Z,5
2022-11-25T10:57:09.608Z,5.1
2022-11-25T11:00:17.400Z,5.1
2022-11-25T11:03:10.200Z,5.2
2022-11-25T11:06:09.608Z,5.2
2022-11-25T11:09:09.661Z,5.4
2022-11-25T11:12:09.583Z,5.6
2022-11-25T11:15:09.570Z,5.7
2022-11-25T11:18:09.672Z,5.7
2022-11-25T11:21:09.619Z,5.8
2022-11-25T11:24:09.636Z,5.8
2022-11-25T11:27:09.629Z,5.9
2022-11-25T11:30:09.707Z,5.9
2022-11-25T11:33:10.411Z,5.9
2022-11-25T11:36:09.561Z,5.8
2022-11-25T11:39:09.556Z,5.8
2022-11-25T11:42:09.638Z,5.8
2022-11-25T11:45:09.614Z,5.9
2022-11-25T11:48:09.646Z,5.9
2022-11-25T11:51:09.758Z,5.9
2022-11-25T11:54:09.650Z,6
2022-11-25T11:57:09.600Z,6.3
2022-11-25T12:00:09.694Z,6.6
2022-11-25T12:03:10.171Z,6.7
2022-11-25T12:06:09.678Z,6.8
2022-11-25T12:09:09.598Z,6.8
2022-11-25T12:12:09.710Z,6.9
2022-11-25T12:15:09.638Z,6.9
2022-11-25T12:18:09.583Z,6.9
2022-11-25T12:21:09.572Z,6.9
2022-11-25T12:24:09.735Z,7
2022-11-25T12:27:09.580Z,7
2022-11-25T12:30:09.689Z,7
2022-11-25T12:33:09.582Z,7
2022-11-25T12:36:09.795Z,6.9
2022-11-25T12:39:09.657Z,6.9
2022-11-25T12:42:09.645Z,6.9
2022-11-25T12:45:09.648Z,6.9
2022-11-25T12:48:09.624Z,6.9
2022-11-25T12:51:09.612Z,6.9
2022-11-25T12:54:09.723Z,6.9
2022-11-25T12:57:09.637Z,6.9
2022-11-25T13:00:51.247Z,6.9
2022-11-25T13:03:16.488Z,6.9
2022-11-25T13:06:09.615Z,6.9
2022-11-25T13:09:09.618Z,6.9
2022-11-25T13:12:12.351Z,6.9
2022-11-25T13:15:13.041Z,6.9
2022-11-25T13:18:10.015Z,6.9
2022-11-25T13:21:09.636Z,6.9
2022-11-25T13:24:09.634Z,7
2022-11-25T13:27:09.664Z,7.1
2022-11-25T13:30:09.682Z,7.1
2022-11-25T13:33:09.481Z,7.2
2022-11-25T13:36:09.564Z,7.2
2022-11-25T13:39:09.637Z,7.2
2022-11-25T13:42:09.833Z,7.4
2022-11-25T13:45:09.588Z,7.4
2022-11-25T13:48:09.696Z,7.6
2022-11-25T13:51:20.772Z,7.6
2022-11-25T13:54:09.606Z,7.7
2022-11-25T13:57:09.564Z,7.7
2022-11-25T14:00:09.724Z,7.7
2022-11-25T14:03:10.273Z,7.7
2022-11-25T14:06:09.655Z,7.7
2022-11-25T14:09:09.535Z,7.7
2022-11-25T14:12:09.601Z,7.7
2022-11-25T14:15:09.682Z,7.7
2022-11-25T14:18:09.959Z,7.7
2022-11-25T14:21:09.643Z,7.6
2022-11-25T14:24:09.616Z,7.6
2022-11-25T14:27:09.563Z,7.6
2022-11-25T14:30:09.668Z,7.6
2022-11-25T14:33:09.557Z,7.6
2022-11-25T14:36:09.653Z,7.6
2022-11-25T14:39:09.574Z,7.5
2022-11-25T14:42:09.588Z,7.5
2022-11-25T14:45:09.604Z,7.4
2022-11-25T14:48:09.609Z,7.4
2022-11-25T14:51:09.705Z,7.4
2022-11-25T14:54:09.582Z,7.3
2022-11-25T14:57:10.239Z,7.2
2022-11-25T15:00:09.809Z,7.1
2022-11-25T15:03:09.607Z,7.1
2022-11-25T15:06:09.602Z,7
2022-11-25T15:09:09.558Z,6.9
2022-11-25T15:12:09.583Z,6.8
2022-11-25T15:15:09.650Z,6.7
2022-11-25T15:18:09.530Z,6.7
2022-11-25T15:21:09.554Z,6.6
2022-11-25T15:24:09.536Z,6.6
2022-11-25T15:27:09.666Z,6.7
2022-11-25T15:30:15.726Z,6.7
2022-11-25T15:33:09.518Z,6.6
2022-11-25T15:36:09.589Z,6.6
2022-11-25T15:39:09.540Z,6.4
2022-11-25T15:42:09.533Z,6.3
2022-11-25T15:45:17.460Z,6.2
2022-11-25T15:48:09.582Z,6.2
2022-11-25T15:51:09.813Z,6.1
2022-11-25T15:54:09.530Z,5.9
2022-11-25T15:57:09.539Z,5.9
2022-11-25T16:00:09.778Z,5.9
2022-11-25T16:03:09.519Z,5.9
2022-11-25T16:06:09.548Z,5.9
2022-11-25T16:09:09.532Z,5.8
2022-11-25T16:12:09.610Z,5.7
2022-11-25T16:15:09.532Z,5.7
2022-11-25T16:18:49.027Z,5.7
2022-11-25T16:21:09.551Z,5.6
2022-11-25T16:24:09.625Z,5.7
2022-11-25T16:27:10.229Z,5.7
2022-11-25T16:30:09.704Z,5.8
2022-11-25T16:33:09.551Z,5.9
2022-11-25T16:36:17.091Z,5.9
2022-11-25T16:39:09.596Z,5.9
2022-11-25T16:42:09.616Z,5.9
2022-11-25T16:45:09.604Z,5.7
2022-11-25T16:48:09.529Z,5.6
2022-11-25T16:51:09.631Z,5.6
2022-11-25T16:54:09.604Z,5.4
2022-11-25T16:57:09.542Z,5.4
2022-11-25T17:00:10.431Z,5.2
2022-11-25T17:03:10.417Z,5.2
2022-11-25T17:06:09.592Z,5.1
2022-11-25T17:09:09.591Z,5.1
2022-11-25T17:12:09.578Z,4.9
2022-11-25T17:15:10.916Z,4.8
2022-11-25T17:18:09.522Z,4.7
2022-11-25T17:21:09.586Z,4.6
2022-11-25T17:24:09.544Z,4.7
2022-11-25T17:27:09.545Z,4.7
2022-11-25T17:30:09.554Z,4.7
2022-11-25T17:33:09.521Z,4.8
2022-11-25T17:36:09.692Z,4.9
2022-11-25T17:39:09.791Z,4.9
2022-11-25T17:42:09.539Z,4.9
2022-11-25T17:45:09.586Z,5.1
2022-11-25T17:48:09.547Z,5.1
2022-11-25T17:51:16.562Z,5.2
2022-11-25T17:54:09.601Z,5.4
2022-11-25T17:57:09.466Z,5.6
2022-11-25T18:00:09.698Z,5.6
2022-11-25T18:03:09.882Z,5.7
2022-11-25T18:06:09.552Z,5.8
2022-11-25T18:09:09.540Z,5.9
2022-11-25T18:12:09.778Z,6
2022-11-25T18:15:09.552Z,6.1
2022-11-25T18:18:09.506Z,6.1
2022-11-25T18:21:09.570Z,6.1
2022-11-25T18:24:09.626Z,6.1
2022-11-25T18:27:09.564Z,6.2
2022-11-25T18:30:09.604Z,6.2
2022-11-25T18:33:09.552Z,6.2
2022-11-25T18:36:09.603Z,6.2
2022-11-25T18:39:09.621Z,6.2
2022-11-25T18:42:09.532Z,6.2
2022-11-25T18:45:09.615Z,6.2
2022-11-25T18:48:09.581Z,6.2
2022-11-25T18:51:09.582Z,6.2
2022-11-25T18:54:09.556Z,6.3
2022-11-25T18:57:09.557Z,6.2
2022-11-25T19:00:41.610Z,6.2
2022-11-25T19:03:10.061Z,6.2
2022-11-25T19:06:09.615Z,6.2
2022-11-25T19:09:09.600Z,6.3
2022-11-25T19:12:09.547Z,6.3
2022-11-25T19:15:09.536Z,6.5
2022-11-25T19:18:09.515Z,6.6
2022-11-25T19:21:09.601Z,6.7
2022-11-25T19:24:09.581Z,6.7
2022-11-25T19:27:09.618Z,6.7
2022-11-25T19:30:09.737Z,6.8
2022-11-25T19:33:09.857Z,6.8
2022-11-25T19:36:09.552Z,6.9
2022-11-25T19:39:09.622Z,6.9
2022-11-25T19:42:09.527Z,6.9
2022-11-25T19:45:09.552Z,6.9
2022-11-25T19:48:09.609Z,6.9
2022-11-25T19:51:09.521Z,6.8
2022-11-25T19:54:09.539Z,6.9
2022-11-25T19:57:09.576Z,6.7
2022-11-25T20:00:09.573Z,6.7
2022-11-25T20:03:09.629Z,6.7
2022-11-25T20:06:09.591Z,6.7
2022-11-25T20:09:16.873Z,6.7
2022-11-25T20:12:15.729Z,6.8
2022-11-25T20:15:09.547Z,6.9
2022-11-25T20:18:12.619Z,6.9
2022-11-25T20:21:09.564Z,6.9
2022-11-25T20:24:09.550Z,7
2022-11-25T20:27:09.617Z,7.1
2022-11-25T20:30:09.589Z,7.1
2022-11-25T20:33:09.596Z,7.1
2022-11-25T20:36:09.566Z,7
2022-11-25T20:39:09.499Z,6.9
2022-11-25T20:42:09.545Z,6.8
2022-11-25T20:45:09.574Z,6.7
2022-11-25T20:48:09.546Z,6.7
2022-11-25T20:51:09.692Z,6.8
2022-11-25T20:54:09.579Z,6.9
2022-11-25T20:57:09.613Z,6.9
2022-11-25T21:00:09.742Z,6.9
2022-11-25T21:03:09.656Z,6.9
2022-11-25T21:06:09.581Z,6.9
2022-11-25T21:09:09.558Z,6.9
2022-11-25T21:12:11.615Z,6.9
2022-11-25T21:15:09.582Z,6.9
2022-11-25T21:18:09.657Z,6.9
2022-11-25T21:21:09.552Z,7
2022-11-25T21:24:09.585Z,6.9
2022-11-25T21:27:16.316Z,7
2022-11-25T21:30:09.662Z,7
2022-11-25T21:33:09.548Z,7
2022-11-25T21:36:09.552Z,7.1
2022-11-25T21:39:09.565Z,7.1
2022-11-25T21:42:09.622Z,7.1
2022-11-25T21:45:09.712Z,7.1
2022-11-25T21:48:09.643Z,7.1
2022-11-25T21:51:09.566Z,7.1
2022-11-25T21:54:09.586Z,7.1
2022-11-25T21:57:09.511Z,7.1
2022-11-25T22:00:09.637Z,7.1
2022-11-25T22:03:09.931Z,7.2
2022-11-25T22:06:09.497Z,7.2
2022-11-25T22:09:09.506Z,7.2
2022-11-25T22:12:09.627Z,7.2
2022-11-25T22:15:09.539Z,7.2
2022-11-25T22:18:09.618Z,7.2
2022-11-25T22:21:09.569Z,7.2
2022-11-25T22:24:09.560Z,7.2
2022-11-25T22:27:09.601Z,7.2
2022-11-25T22:30:09.669Z,7.2
2022-11-25T22:33:09.672Z,7.2
2022-11-25T22:36:09.583Z,7.2
2022-11-25T22:39:09.565Z,7.3
2022-11-25T22:42:09.631Z,7.3
2022-11-25T22:45:09.494Z,7.3
2022-11-25T22:48:09.498Z,7.3
2022-11-25T22:51:09.553Z,7.4
2022-11-25T22:54:09.508Z,7.4
2022-11-25T22:57:09.604Z,7.4
2022-11-25T23:00:09.979Z,7.4
2022-11-25T23:03:09.559Z,7.4
2022-11-25T23:06:09.584Z,7.4
2022-11-25T23:09:09.570Z,7.4
2022-11-25T23:12:09.565Z,7.4
2022-11-25T23:15:09.564Z,7.4
2022-11-25T23:18:09.723Z,7.4
2022-11-25T23:21:09.883Z,7.5
2022-11-25T23:24:09.594Z,7.5
2022-11-25T23:30:09.580Z,7.6
2022-11-25T23:33:09.579Z,7.5
2022-11-25T23:36:17.764Z,7.6
2022-11-25T23:39:09.817Z,7.6
2022-11-25T23:42:09.609Z,7.6
2022-11-25T23:45:09.642Z,7.6
2022-11-25T23:48:09.544Z,7.6
2022-11-25T23:51:09.526Z,7.6
2022-11-25T23:54:09.560Z,7.6
2022-11-25T23:57:09.622Z,7.6
